Terminal Aerodrome Forecast
Issued by NWS Nashville, TN

Home | Current Version | Previous Version | Text Only | Print | Product List | Glossary On
Versions: 1 2 3 4 5 6 7 8 9 10 11 12 13 14 15 16 17 18 19 20 21 22 23 24 25 26 27
398
FTUS44 KOHX 261723
TAFBNA
TAF
KBNA 261723Z 2618/2718 20010G17KT P6SM BKN025
     FM261900 20011G19KT P6SM BKN040
     FM270100 20005KT P6SM SCT150
     FM271000 19004KT 6SM BR BKN050
     FM271300 18006KT P6SM VCSH BKN040=

USA.gov is the U.S. government's official web portal to all federal, state and local government web resources and services.